Time;durP1;ratioP1;P1;durP2;ratioP2;P2;SDS_P1;SDS_P2;PMS_P1;PMS_P2;Temp;Humidity;BMP_temperature;BMP_pressure;BME280_temperature;BME280_humidity;BME280_pressure;Samples;Min_cycle;Max_cycle;Signal;HPM_P1;HPM_P2
2022/01/22 00:01:46;;;;;;;;;;;;;;;;;;5045275;28;19946;-82
2022/01/22 00:04:12;;;;;;;;;;;;;;;;;;5047526;28;19932;-83
2022/01/22 00:06:39;;;;;;;;;;;;;;;;;;5049048;28;19936;-82
2022/01/22 00:09:06;;;;;;;;;;;;;;;;;;5050272;28;19925;-82
2022/01/22 00:11:37;;;;;;;;;;;;;;;;;;5031840;28;19998;-82
2022/01/22 00:17:07;;;;;;;;;;;;;;;;;;4972330;28;20324;-83
2022/01/22 00:19:34;;;;;;;;;;;;;;;;;;4969802;28;19930;-83
2022/01/22 00:22:00;;;;;;;;;;;;;;;;;;4958341;28;19930;-83
2022/01/22 00:24:36;;;;;;;;;;;;;;;;;;4950785;28;19930;-83
2022/01/22 00:27:22;;;;;;;;;;;;;;;;;;4972066;28;19929;-83
2022/01/22 00:29:48;;;;;;;;;;;;;;;;;;4969510;28;20013;-83
2022/01/22 00:32:14;;;;;;;;;;;;;;;;;;4979888;28;20020;-83
2022/01/22 00:34:40;;;;;;;;;;;;;;;;;;4971218;28;20349;-83
2022/01/22 00:37:06;;;;;;;;;;;;;;;;;;4993636;28;19999;-83
2022/01/22 00:39:34;;;;;;;;;;;;;;;;;;5006429;28;19929;-82
2022/01/22 00:42:01;;;;;;;;;;;;;;;;;;4996296;28;20064;-82
2022/01/22 00:44:28;;;;;;;;;;;;;;;;;;4988476;28;19936;-82
2022/01/22 00:46:54;;;;;;;;;;;;;;;;;;5012529;28;19925;-82
2022/01/22 00:49:20;;;;;;;;;;;;;;;;;;5070634;28;19931;-82
2022/01/22 00:51:46;;;;;;;;;;;;;;;;;;5067470;28;19963;-82
2022/01/22 00:54:12;;;;;;;;;;;;;;;;;;5076398;28;20044;-82
2022/01/22 00:56:38;;;;;;;;;;;;;;;;;;5068703;28;19928;-82
2022/01/22 00:59:04;;;;;;;;;;;;;;;;;;5074480;28;19935;-82
2022/01/22 01:01:30;;;;;;;;;;;;;;;;;;5067069;28;19928;-83
2022/01/22 01:04:08;;;;;;;;;;;;;;;;;;5073848;28;20520;-82
2022/01/22 01:06:34;;;;;;;;;;;;;;;;;;5066602;28;20019;-82
2022/01/22 01:09:02;;;;;;;;;;;;;;;;;;5069326;28;19999;-82
2022/01/22 01:11:30;;;;;;;;;;;;;;;;;;5047845;28;19925;-82
2022/01/22 01:14:01;;;;;;;;;;;;;;;;;;5071609;28;20481;-83
2022/01/22 01:33:22;;;;;;;;;;;;;;;;;;5066680;28;19928;-82
2022/01/22 01:35:57;;;;;;;;;;;;;;;;;;5067126;28;20340;-82
2022/01/22 01:38:25;;;;;;;;;;;;;;;;;;5067489;28;19929;-83
2022/01/22 01:41:02;;;;;;;;;;;;;;;;;;5072329;28;21733;-82
2022/01/22 01:43:39;;;;;;;;;;;;;;;;;;5064199;28;20034;-83
2022/01/22 01:46:05;;;;;;;;;;;;;;;;;;5051276;28;19931;-82
2022/01/22 01:48:43;;;;;;;;;;;;;;;;;;5066235;28;19921;-82
2022/01/22 01:51:10;;;;;;;;;;;;;;;;;;5070709;28;19921;-82
2022/01/22 01:53:59;;;;;;;;;;;;;;;;;;5066886;28;19951;-83
2022/01/22 01:59:19;;;;;;;;;;;;;;;;;;5053012;28;20377;-82
2022/01/22 02:01:54;;;;;;;;;;;;;;;;;;5073653;28;20324;-81
2022/01/22 02:04:21;;;;;;;;;;;;;;;;;;5053381;28;19924;-82
2022/01/22 02:07:06;;;;;;;;;;;;;;;;;;5073399;28;19927;-82
2022/01/22 02:09:33;;;;;;;;;;;;;;;;;;5053550;28;19942;-82
2022/01/22 02:12:12;;;;;;;;;;;;;;;;;;5050390;28;19928;-81
2022/01/22 02:25:25;;;;;;;;;;;;;;;;;;5051907;28;20019;-82
2022/01/22 02:27:53;;;;;;;;;;;;;;;;;;5063550;28;19920;-82
2022/01/22 02:30:23;;;;;;;;;;;;;;;;;;5066723;28;19973;-82
2022/01/22 02:35:45;;;;;;;;;;;;;;;;;;5062969;28;20294;-82
2022/01/22 02:38:17;;;;;;;;;;;;;;;;;;5072689;28;20026;-82
2022/01/22 02:40:48;;;;;;;;;;;;;;;;;;5063915;28;19928;-83
2022/01/22 02:43:15;;;;;;;;;;;;;;;;;;5051872;28;19936;-82
2022/01/22 02:45:45;;;;;;;;;;;;;;;;;;5067274;28;19928;-82
2022/01/22 02:48:11;;;;;;;;;;;;;;;;;;5066893;28;19921;-82
2022/01/22 02:50:37;;;;;;;;;;;;;;;;;;5064109;28;19924;-82
2022/01/22 02:53:03;;;;;;;;;;;;;;;;;;5064046;28;20204;-82
2022/01/22 02:55:29;;;;;;;;;;;;;;;;;;5066927;28;19939;-82
2022/01/22 02:57:55;;;;;;;;;;;;;;;;;;5069290;28;19962;-82
2022/01/22 03:00:22;;;;;;;;;;;;;;;;;;5075323;28;19928;-82
2022/01/22 03:02:51;;;;;;;;;;;;;;;;;;5068928;28;19928;-82
2022/01/22 03:05:18;;;;;;;;;;;;;;;;;;5058394;28;19927;-82
2022/01/22 03:07:49;;;;;;;;;;;;;;;;;;5051649;28;19928;-83
2022/01/22 03:10:19;;;;;;;;;;;;;;;;;;5073244;28;20023;-82
2022/01/22 03:29:10;;;;;;;;;;;;;;;;;;5050947;28;20627;-82
2022/01/22 03:31:47;;;;;;;;;;;;;;;;;;5047650;28;19929;-82
2022/01/22 03:34:13;;;;;;;;;;;;;;;;;;5045311;28;20332;-82
2022/01/22 03:36:41;;;;;;;;;;;;;;;;;;5043423;28;20266;-82
2022/01/22 03:39:07;;;;;;;;;;;;;;;;;;5030378;28;19966;-83
2022/01/22 03:41:35;;;;;;;;;;;;;;;;;;5043725;28;20376;-82
2022/01/22 03:44:02;;;;;;;;;;;;;;;;;;5026903;28;19931;-82
2022/01/22 03:46:30;;;;;;;;;;;;;;;;;;5032919;28;19967;-82
2022/01/22 03:48:56;;;;;;;;;;;;;;;;;;5032816;28;20721;-82
2022/01/22 03:51:22;;;;;;;;;;;;;;;;;;5038916;28;20306;-82
2022/01/22 03:53:48;;;;;;;;;;;;;;;;;;5044402;28;20024;-82
2022/01/22 03:56:14;;;;;;;;;;;;;;;;;;5051763;28;20019;-82
2022/01/22 03:58:40;;;;;;;;;;;;;;;;;;5056855;28;19932;-82
2022/01/22 04:04:19;;;;;;;;;;;;;;;;;;5079370;28;20072;-82
2022/01/22 04:09:09;;;;;;;;;;;;;;;;;;5076092;28;20006;-82
2022/01/22 04:11:38;;;;;;;;;;;;;;;;;;5071810;28;19927;-82
2022/01/22 04:14:12;;;;;;;;;;;;;;;;;;5061017;28;19978;-82
2022/01/22 04:17:17;;;;;;;;;;;;;;;;;;5069990;28;19924;-82
2022/01/22 04:25:00;;;;;;;;;;;;;;;;;;5071986;28;19993;-82
2022/01/22 04:27:29;;;;;;;;;;;;;;;;;;5085885;28;20350;-82
2022/01/22 04:29:59;;;;;;;;;;;;;;;;;;5089507;27;19955;-82
2022/01/22 04:32:25;;;;;;;;;;;;;;;;;;5082765;27;20368;-82
2022/01/22 04:34:51;;;;;;;;;;;;;;;;;;5092893;28;20025;-82
2022/01/22 04:37:18;;;;;;;;;;;;;;;;;;5092742;28;19923;-82
2022/01/22 04:39:55;;;;;;;;;;;;;;;;;;5088935;27;19924;-82
2022/01/22 04:42:22;;;;;;;;;;;;;;;;;;5075532;28;19924;-82
2022/01/22 04:45:09;;;;;;;;;;;;;;;;;;5091097;28;19932;-82
2022/01/22 04:55:34;;;;;;;;;;;;;;;;;;5086057;28;20571;-82
2022/01/22 04:58:03;;;;;;;;;;;;;;;;;;5095071;27;19968;-82
2022/01/22 05:00:31;;;;;;;;;;;;;;;;;;5085015;28;20380;-82
2022/01/22 05:03:00;;;;;;;;;;;;;;;;;;5084706;28;19939;-82
2022/01/22 05:05:27;;;;;;;;;;;;;;;;;;5085652;27;19928;-82
2022/01/22 05:07:53;;;;;;;;;;;;;;;;;;5091187;28;20353;-82
2022/01/22 05:10:19;;;;;;;;;;;;;;;;;;5090635;28;20055;-82
2022/01/22 05:12:45;;;;;;;;;;;;;;;;;;5084819;28;20767;-82
2022/01/22 05:15:11;;;;;;;;;;;;;;;;;;5088501;27;20023;-82
2022/01/22 05:17:40;;;;;;;;;;;;;;;;;;5084491;28;19927;-82
2022/01/22 05:20:32;;;;;;;;;;;;;;;;;;5089943;28;19938;-82
2022/01/22 05:23:18;;;;;;;;;;;;;;;;;;5088205;28;20366;-82
2022/01/22 05:25:51;;;;;;;;;;;;;;;;;;5070793;28;20988;-82
2022/01/22 05:31:53;;;;;;;;;;;;;;;;;;5075452;28;19923;-82
2022/01/22 05:37:05;;;;;;;;;;;;;;;;;;5074012;28;20394;-82
2022/01/22 05:39:44;;;;;;;;;;;;;;;;;;5032350;28;22149;-82
2022/01/22 05:42:11;;;;;;;;;;;;;;;;;;5036217;28;19932;-81
2022/01/22 05:44:37;;;;;;;;;;;;;;;;;;5032836;28;19950;-82
2022/01/22 05:47:05;;;;;;;;;;;;;;;;;;5035801;28;19936;-81
2022/01/22 05:49:40;;;;;;;;;;;;;;;;;;5051243;28;20064;-82
2022/01/22 05:52:09;;;;;;;;;;;;;;;;;;5039079;28;19928;-82
2022/01/22 05:55:12;;;;;;;;;;;;;;;;;;5048041;28;19924;-82
2022/01/22 06:00:22;;;;;;;;;;;;;;;;;;5033757;28;19928;-83
2022/01/22 06:02:48;;;;;;;;;;;;;;;;;;5030031;28;19944;-83
2022/01/22 06:05:15;;;;;;;;;;;;;;;;;;5033268;28;20391;-83
2022/01/22 06:07:41;;;;;;;;;;;;;;;;;;5026947;28;19953;-82
2022/01/22 06:10:17;;;;;;;;;;;;;;;;;;5029547;28;19992;-82
2022/01/22 06:13:09;;;;;;;;;;;;;;;;;;5021430;28;19931;-82
2022/01/22 06:15:33;;;;;;;;;;;;;;;;;;5020513;28;19960;-82
2022/01/22 06:17:59;;;;;;;;;;;;;;;;;;5028592;28;19979;-82
2022/01/22 06:20:30;;;;;;;;;;;;;;;;;;5021988;28;19928;-82
2022/01/22 06:22:57;;;;;;;;;;;;;;;;;;5028440;28;19924;-82
2022/01/22 06:25:24;;;;;;;;;;;;;;;;;;5045735;28;19990;-82
2022/01/22 06:27:50;;;;;;;;;;;;;;;;;;5015249;28;19929;-83
2022/01/22 06:30:17;;;;;;;;;;;;;;;;;;5035496;28;19927;-83
2022/01/22 06:32:44;;;;;;;;;;;;;;;;;;5038656;28;21400;-83
2022/01/22 06:35:10;;;;;;;;;;;;;;;;;;5059755;28;19939;-82
2022/01/22 06:37:36;;;;;;;;;;;;;;;;;;5048248;28;21662;-82
2022/01/22 06:42:47;;;;;;;;;;;;;;;;;;5065617;28;19936;-82
2022/01/22 06:45:13;;;;;;;;;;;;;;;;;;5051268;28;19978;-82
2022/01/22 06:47:40;;;;;;;;;;;;;;;;;;5047670;28;19928;-82
2022/01/22 06:50:13;;;;;;;;;;;;;;;;;;5039315;28;19925;-82
2022/01/22 06:52:40;;;;;;;;;;;;;;;;;;5074335;28;19927;-82
2022/01/22 06:55:06;;;;;;;;;;;;;;;;;;5058422;28;19919;-82
2022/01/22 06:57:33;;;;;;;;;;;;;;;;;;5032211;28;20004;-81
2022/01/22 07:00:14;;;;;;;;;;;;;;;;;;5071642;28;19962;-82
2022/01/22 07:02:41;;;;;;;;;;;;;;;;;;5053088;28;19971;-82
2022/01/22 07:05:07;;;;;;;;;;;;;;;;;;5069980;28;19924;-82
2022/01/22 07:07:36;;;;;;;;;;;;;;;;;;5066666;28;20019;-82
2022/01/22 07:10:02;;;;;;;;;;;;;;;;;;5053737;28;20367;-83
2022/01/22 07:12:29;;;;;;;;;;;;;;;;;;5069700;28;19946;-83
2022/01/22 07:14:55;;;;;;;;;;;;;;;;;;5073976;28;19920;-83
2022/01/22 07:17:21;;;;;;;;;;;;;;;;;;5067560;28;19935;-83
2022/01/22 07:19:47;;;;;;;;;;;;;;;;;;5064158;28;19924;-83
2022/01/22 07:25:07;;;;;;;;;;;;;;;;;;5054852;28;20021;-83
2022/01/22 07:27:35;;;;;;;;;;;;;;;;;;5066718;28;19948;-83
2022/01/22 07:30:02;;;;;;;;;;;;;;;;;;5055566;28;20029;-83
2022/01/22 07:32:34;;;;;;;;;;;;;;;;;;5046936;28;20359;-83
2022/01/22 07:35:01;;;;;;;;;;;;;;;;;;5067216;28;19992;-83
2022/01/22 07:37:28;;;;;;;;;;;;;;;;;;5067828;28;19928;-83
2022/01/22 07:39:54;;;;;;;;;;;;;;;;;;5071941;28;19928;-83
2022/01/22 07:42:20;;;;;;;;;;;;;;;;;;5069707;28;19943;-83
2022/01/22 07:44:46;;;;;;;;;;;;;;;;;;5064938;28;19932;-83
2022/01/22 07:47:12;;;;;;;;;;;;;;;;;;5072087;28;19935;-83
2022/01/22 07:49:39;;;;;;;;;;;;;;;;;;5067802;28;19997;-83
2022/01/22 07:52:05;;;;;;;;;;;;;;;;;;5074012;28;19964;-83
2022/01/22 07:54:32;;;;;;;;;;;;;;;;;;5070836;28;19967;-83
2022/01/22 07:56:58;;;;;;;;;;;;;;;;;;5074261;28;20282;-83
2022/01/22 07:59:25;;;;;;;;;;;;;;;;;;5073099;28;19936;-83
2022/01/22 08:01:51;;;;;;;;;;;;;;;;;;5074977;28;20334;-82
2022/01/22 08:04:24;;;;;;;;;;;;;;;;;;5076186;28;19967;-83
2022/01/22 08:06:51;;;;;;;;;;;;;;;;;;5077516;28;19959;-83
2022/01/22 08:09:17;;;;;;;;;;;;;;;;;;5074525;28;19928;-82
2022/01/22 08:11:44;;;;;;;;;;;;;;;;;;5068759;28;19928;-83
2022/01/22 08:14:10;;;;;;;;;;;;;;;;;;5078634;28;19935;-84
2022/01/22 08:16:37;;;;;;;;;;;;;;;;;;5067041;28;19974;-81
2022/01/22 08:19:03;;;;;;;;;;;;;;;;;;5071993;28;19940;-82
2022/01/22 08:21:29;;;;;;;;;;;;;;;;;;5068017;28;19969;-82
2022/01/22 08:23:55;;;;;;;;;;;;;;;;;;5055339;28;20440;-81
2022/01/22 08:26:27;;;;;;;;;;;;;;;;;;5070698;28;19967;-82
2022/01/22 08:29:03;;;;;;;;;;;;;;;;;;5053999;28;20159;-81
2022/01/22 08:37:09;;;;;;;;;;;;;;;;;;5071649;28;20010;-82
2022/01/22 08:39:35;;;;;;;;;;;;;;;;;;5069801;28;19930;-82
2022/01/22 08:42:01;;;;;;;;;;;;;;;;;;5078303;28;20664;-82
2022/01/22 08:44:27;;;;;;;;;;;;;;;;;;5067487;28;19935;-83
2022/01/22 08:46:53;;;;;;;;;;;;;;;;;;5073262;28;19920;-83
2022/01/22 08:49:19;;;;;;;;;;;;;;;;;;5058159;28;20001;-82
2022/01/22 08:51:45;;;;;;;;;;;;;;;;;;5065860;28;19991;-82
2022/01/22 08:54:12;;;;;;;;;;;;;;;;;;5072307;28;20038;-83
2022/01/22 08:56:40;;;;;;;;;;;;;;;;;;5064041;28;19989;-83
2022/01/22 08:59:07;;;;;;;;;;;;;;;;;;5074759;28;20024;-82
2022/01/22 09:01:33;;;;;;;;;;;;;;;;;;5070623;28;19924;-83
2022/01/22 09:03:59;;;;;;;;;;;;;;;;;;5082485;28;19931;-82
2022/01/22 09:06:27;;;;;;;;;;;;;;;;;;5085622;28;19920;-83
2022/01/22 09:08:59;;;;;;;;;;;;;;;;;;5078677;28;19920;-82
2022/01/22 09:11:25;;;;;;;;;;;;;;;;;;5088145;27;19920;-83
2022/01/22 09:13:53;;;;;;;;;;;;;;;;;;5098117;28;19927;-83
2022/01/22 09:16:35;;;;;;;;;;;;;;;;;;5090608;28;19922;-83
2022/01/22 09:19:06;;;;;;;;;;;;;;;;;;5094201;28;19923;-82
2022/01/22 09:21:33;;;;;;;;;;;;;;;;;;5071526;28;19930;-83
2022/01/22 09:23:59;;;;;;;;;;;;;;;;;;5084723;28;19928;-82
2022/01/22 09:26:25;;;;;;;;;;;;;;;;;;5094763;28;20010;-83
2022/01/22 09:28:51;;;;;;;;;;;;;;;;;;5098456;28;19931;-82
2022/01/22 09:31:18;;;;;;;;;;;;;;;;;;5093941;28;19924;-82
2022/01/22 09:33:45;;;;;;;;;;;;;;;;;;5085480;28;21000;-82
2022/01/22 09:36:11;;;;;;;;;;;;;;;;;;5072759;28;19924;-82
2022/01/22 09:38:38;;;;;;;;;;;;;;;;;;5076622;28;19980;-83
2022/01/22 09:41:05;;;;;;;;;;;;;;;;;;5074186;28;19920;-82
2022/01/22 09:43:32;;;;;;;;;;;;;;;;;;5074306;28;19950;-82
2022/01/22 09:45:59;;;;;;;;;;;;;;;;;;5075783;28;20391;-82
2022/01/22 09:48:35;;;;;;;;;;;;;;;;;;5090646;28;20061;-82
2022/01/22 09:51:16;;;;;;;;;;;;;;;;;;5094626;28;19930;-82
2022/01/22 09:53:43;;;;;;;;;;;;;;;;;;5093093;28;19931;-82
2022/01/22 09:56:09;;;;;;;;;;;;;;;;;;5091979;28;19927;-82
2022/01/22 09:58:50;;;;;;;;;;;;;;;;;;5054087;28;19976;-82
2022/01/22 10:01:16;;;;;;;;;;;;;;;;;;5039340;28;20366;-82
2022/01/22 10:03:42;;;;;;;;;;;;;;;;;;5048306;28;19928;-82
2022/01/22 10:06:09;;;;;;;;;;;;;;;;;;5050944;28;19971;-82
2022/01/22 10:08:36;;;;;;;;;;;;;;;;;;5043133;28;19925;-82
2022/01/22 10:11:04;;;;;;;;;;;;;;;;;;5047944;28;19964;-82
2022/01/22 10:13:30;;;;;;;;;;;;;;;;;;5045649;28;19925;-82
2022/01/22 10:15:57;;;;;;;;;;;;;;;;;;5030940;28;19964;-83
2022/01/22 10:18:25;;;;;;;;;;;;;;;;;;5035199;28;19932;-83
2022/01/22 10:20:51;;;;;;;;;;;;;;;;;;5034479;28;20007;-83
2022/01/22 10:23:19;;;;;;;;;;;;;;;;;;5045764;28;20593;-83
2022/01/22 10:25:51;;;;;;;;;;;;;;;;;;5034752;28;19929;-84
2022/01/22 10:28:21;;;;;;;;;;;;;;;;;;5046099;28;19928;-83
2022/01/22 10:30:47;;;;;;;;;;;;;;;;;;5060881;28;19920;-83
2022/01/22 10:33:34;;;;;;;;;;;;;;;;;;5071142;28;19934;-83
2022/01/22 10:36:17;;;;;;;;;;;;;;;;;;5089233;28;20037;-83
2022/01/22 10:38:44;;;;;;;;;;;;;;;;;;5086118;28;19934;-83
2022/01/22 10:41:10;;;;;;;;;;;;;;;;;;5087914;28;19924;-83
2022/01/22 10:43:42;;;;;;;;;;;;;;;;;;5083284;28;19935;-83
2022/01/22 10:49:05;;;;;;;;;;;;;;;;;;5035135;28;19972;-83
2022/01/22 10:51:32;;;;;;;;;;;;;;;;;;5083669;28;19924;-84
2022/01/22 10:53:59;;;;;;;;;;;;;;;;;;5070692;28;19927;-83
2022/01/22 10:56:26;;;;;;;;;;;;;;;;;;5085442;28;19927;-82
2022/01/22 10:58:53;;;;;;;;;;;;;;;;;;5088965;28;20010;-83
2022/01/22 11:01:35;;;;;;;;;;;;;;;;;;5023844;28;19951;-83
2022/01/22 11:04:00;;;;;;;;;;;;;;;;;;5028416;28;19933;-82
2022/01/22 11:06:26;;;;;;;;;;;;;;;;;;5007816;28;19925;-83
2022/01/22 11:08:52;;;;;;;;;;;;;;;;;;5033838;28;19959;-82
2022/01/22 11:11:19;;;;;;;;;;;;;;;;;;5033419;28;20022;-82
2022/01/22 11:13:45;;;;;;;;;;;;;;;;;;5028202;28;19935;-81
2022/01/22 11:16:11;;;;;;;;;;;;;;;;;;5032624;28;19928;-81
2022/01/22 11:18:38;;;;;;;;;;;;;;;;;;5013175;28;19942;-82
2022/01/22 11:21:04;;;;;;;;;;;;;;;;;;5018689;28;19917;-81
2022/01/22 11:23:30;;;;;;;;;;;;;;;;;;5014987;28;20398;-82
2022/01/22 11:25:56;;;;;;;;;;;;;;;;;;5006087;28;19991;-82
2022/01/22 11:28:23;;;;;;;;;;;;;;;;;;5002948;28;21420;-81
2022/01/22 11:30:50;;;;;;;;;;;;;;;;;;5035006;28;19921;-81
2022/01/22 11:33:17;;;;;;;;;;;;;;;;;;5063496;28;19924;-82
2022/01/22 11:35:58;;;;;;;;;;;;;;;;;;5095076;28;20137;-82
2022/01/22 11:38:25;;;;;;;;;;;;;;;;;;5076581;28;19920;-82
2022/01/22 11:40:50;;;;;;;;;;;;;;;;;;5058634;28;19927;-83
2022/01/22 11:43:23;;;;;;;;;;;;;;;;;;5074455;28;19928;-83
2022/01/22 11:45:54;;;;;;;;;;;;;;;;;;5088289;28;19948;-82
2022/01/22 11:48:20;;;;;;;;;;;;;;;;;;5088721;28;19981;-82
2022/01/22 11:50:46;;;;;;;;;;;;;;;;;;5090072;28;19920;-82
2022/01/22 11:53:12;;;;;;;;;;;;;;;;;;5091587;28;19932;-83
2022/01/22 11:55:39;;;;;;;;;;;;;;;;;;5071120;28;20040;-83
2022/01/22 11:58:04;;;;;;;;;;;;;;;;;;5062522;28;19915;-83
2022/01/22 12:00:31;;;;;;;;;;;;;;;;;;5059692;28;19927;-83
2022/01/22 12:02:56;;;;;;;;;;;;;;;;;;5078327;28;19934;-83
2022/01/22 12:05:22;;;;;;;;;;;;;;;;;;5074275;28;19928;-82
2022/01/22 12:07:49;;;;;;;;;;;;;;;;;;5075759;28;20280;-83
2022/01/22 12:15:45;;;;;;;;;;;;;;;;;;5092692;28;19928;-82
2022/01/22 12:18:13;;;;;;;;;;;;;;;;;;5076374;27;19930;-83
2022/01/22 12:23:27;;;;;;;;;;;;;;;;;;5090369;28;19919;-84
2022/01/22 12:25:53;;;;;;;;;;;;;;;;;;5077933;28;19924;-84
2022/01/22 12:28:19;;;;;;;;;;;;;;;;;;5072671;28;20368;-83
2022/01/22 12:30:45;;;;;;;;;;;;;;;;;;5071232;28;20005;-84
2022/01/22 12:33:13;;;;;;;;;;;;;;;;;;5058979;28;19923;-83
2022/01/22 12:35:42;;;;;;;;;;;;;;;;;;5087397;27;20058;-83
2022/01/22 12:38:08;;;;;;;;;;;;;;;;;;5073824;28;20446;-84
2022/01/22 12:40:36;;;;;;;;;;;;;;;;;;5090450;28;19927;-84
2022/01/22 12:43:06;;;;;;;;;;;;;;;;;;5074994;28;19934;-84
2022/01/22 12:45:33;;;;;;;;;;;;;;;;;;5069537;28;19928;-84
2022/01/22 12:48:00;;;;;;;;;;;;;;;;;;5070242;27;19920;-84
2022/01/22 12:50:26;;;;;;;;;;;;;;;;;;5070777;28;19931;-84
2022/01/22 12:52:52;;;;;;;;;;;;;;;;;;5073585;28;20378;-83
2022/01/22 12:55:24;;;;;;;;;;;;;;;;;;5093158;28;20738;-84
2022/01/22 12:57:51;;;;;;;;;;;;;;;;;;5079879;28;19928;-84
2022/01/22 13:00:17;;;;;;;;;;;;;;;;;;5059099;28;20279;-83
2022/01/22 13:02:43;;;;;;;;;;;;;;;;;;5071759;28;22413;-84
2022/01/22 13:05:09;;;;;;;;;;;;;;;;;;5056176;28;20496;-84
2022/01/22 13:07:35;;;;;;;;;;;;;;;;;;5069530;28;19968;-83
2022/01/22 13:10:06;;;;;;;;;;;;;;;;;;5073421;28;19973;-82
2022/01/22 13:12:33;;;;;;;;;;;;;;;;;;5064069;28;19992;-83
2022/01/22 13:14:59;;;;;;;;;;;;;;;;;;5072328;28;19931;-82
2022/01/22 13:17:25;;;;;;;;;;;;;;;;;;5067185;28;19924;-82
2022/01/22 13:19:51;;;;;;;;;;;;;;;;;;5063363;28;19928;-82
2022/01/22 13:22:17;;;;;;;;;;;;;;;;;;5053023;28;20037;-82
2022/01/22 13:24:43;;;;;;;;;;;;;;;;;;5063667;28;19933;-82
2022/01/22 13:27:16;;;;;;;;;;;;;;;;;;5069578;28;19924;-84
2022/01/22 13:29:42;;;;;;;;;;;;;;;;;;5064488;28;20007;-85
2022/01/22 13:32:23;;;;;;;;;;;;;;;;;;5047800;28;19988;-83
2022/01/22 13:35:01;;;;;;;;;;;;;;;;;;5062456;28;20002;-83
2022/01/22 13:40:34;;;;;;;;;;;;;;;;;;5070784;28;20389;-84
2022/01/22 13:48:30;;;;;;;;;;;;;;;;;;5061495;28;20396;-83
2022/01/22 13:50:56;;;;;;;;;;;;;;;;;;5069112;28;19931;-83
2022/01/22 13:53:22;;;;;;;;;;;;;;;;;;5049085;28;19928;-82
2022/01/22 13:55:49;;;;;;;;;;;;;;;;;;5063012;28;20339;-82
2022/01/22 13:58:15;;;;;;;;;;;;;;;;;;5065180;28;19924;-82
2022/01/22 14:00:43;;;;;;;;;;;;;;;;;;5043675;28;20378;-82
2022/01/22 14:03:21;;;;;;;;;;;;;;;;;;5063801;28;19977;-82
2022/01/22 14:05:47;;;;;;;;;;;;;;;;;;5078185;27;19928;-82
2022/01/22 14:08:14;;;;;;;;;;;;;;;;;;5063793;28;19924;-82
2022/01/22 14:10:41;;;;;;;;;;;;;;;;;;5062499;28;19995;-81
2022/01/22 14:13:10;;;;;;;;;;;;;;;;;;5061961;28;21890;-81
2022/01/22 14:15:40;;;;;;;;;;;;;;;;;;5063653;28;19935;-82
2022/01/22 14:18:27;;;;;;;;;;;;;;;;;;5045660;28;19931;-81
2022/01/22 14:20:53;;;;;;;;;;;;;;;;;;5067787;28;19920;-81
2022/01/22 14:23:19;;;;;;;;;;;;;;;;;;5067540;28;19951;-81
2022/01/22 14:25:45;;;;;;;;;;;;;;;;;;5066614;28;20415;-81
2022/01/22 14:28:12;;;;;;;;;;;;;;;;;;5071763;28;19967;-81
2022/01/22 14:30:38;;;;;;;;;;;;;;;;;;5065238;28;19974;-81
2022/01/22 14:33:04;;;;;;;;;;;;;;;;;;5065255;28;19924;-81
2022/01/22 14:35:30;;;;;;;;;;;;;;;;;;5046881;28;19932;-82
2022/01/22 14:37:59;;;;;;;;;;;;;;;;;;5056993;28;20451;-82
2022/01/22 14:45:55;;;;;;;;;;;;;;;;;;5066020;28;19928;-82
2022/01/22 14:48:22;;;;;;;;;;;;;;;;;;5063239;28;20057;-84
2022/01/22 14:50:48;;;;;;;;;;;;;;;;;;5067671;28;20315;-83
2022/01/22 14:53:14;;;;;;;;;;;;;;;;;;5066134;28;20066;-82
2022/01/22 14:55:40;;;;;;;;;;;;;;;;;;5064522;28;20653;-83
2022/01/22 14:58:06;;;;;;;;;;;;;;;;;;5069313;28;19920;-83
2022/01/22 15:00:32;;;;;;;;;;;;;;;;;;5069419;28;20378;-82
2022/01/22 15:02:58;;;;;;;;;;;;;;;;;;5068568;28;19936;-81
2022/01/22 15:05:24;;;;;;;;;;;;;;;;;;5064112;28;19936;-81
2022/01/22 15:07:50;;;;;;;;;;;;;;;;;;5066623;28;19928;-81
2022/01/22 15:10:16;;;;;;;;;;;;;;;;;;5070307;28;19974;-81
2022/01/22 15:12:45;;;;;;;;;;;;;;;;;;5067060;28;19934;-82
2022/01/22 15:15:12;;;;;;;;;;;;;;;;;;5047001;28;20579;-82
2022/01/22 15:20:16;;;;;;;;;;;;;;;;;;5066138;28;19930;-82
2022/01/22 15:22:42;;;;;;;;;;;;;;;;;;5065627;28;19920;-83
2022/01/22 15:25:08;;;;;;;;;;;;;;;;;;5067219;28;20635;-81
2022/01/22 15:27:35;;;;;;;;;;;;;;;;;;5068393;28;19966;-82
2022/01/22 15:30:21;;;;;;;;;;;;;;;;;;5072044;28;20382;-82
2022/01/22 15:32:54;;;;;;;;;;;;;;;;;;5063932;28;19927;-82
2022/01/22 15:35:20;;;;;;;;;;;;;;;;;;5070801;28;19931;-82
2022/01/22 15:37:50;;;;;;;;;;;;;;;;;;5074568;28;20068;-83
2022/01/22 15:40:16;;;;;;;;;;;;;;;;;;5071105;28;19947;-82
2022/01/22 15:42:42;;;;;;;;;;;;;;;;;;5063453;28;20393;-81
2022/01/22 15:45:08;;;;;;;;;;;;;;;;;;5070276;28;19931;-81
2022/01/22 15:47:34;;;;;;;;;;;;;;;;;;5071586;28;19973;-82
2022/01/22 15:50:01;;;;;;;;;;;;;;;;;;5075661;28;19928;-82
2022/01/22 15:52:27;;;;;;;;;;;;;;;;;;5068964;28;19920;-81
2022/01/22 15:54:53;;;;;;;;;;;;;;;;;;5067263;28;19938;-82
2022/01/22 15:57:20;;;;;;;;;;;;;;;;;;5068433;28;19928;-81
2022/01/22 15:59:46;;;;;;;;;;;;;;;;;;5051374;28;19928;-81
2022/01/22 16:02:12;;;;;;;;;;;;;;;;;;5073088;28;19947;-82
2022/01/22 16:04:38;;;;;;;;;;;;;;;;;;5062847;28;20402;-82
2022/01/22 16:07:18;;;;;;;;;;;;;;;;;;5054439;28;19928;-81
2022/01/22 16:09:44;;;;;;;;;;;;;;;;;;5065849;28;19928;-82
2022/01/22 16:12:10;;;;;;;;;;;;;;;;;;5072584;28;19993;-81
2022/01/22 16:14:37;;;;;;;;;;;;;;;;;;5068705;28;19978;-82
2022/01/22 16:17:04;;;;;;;;;;;;;;;;;;5077921;28;19923;-82
2022/01/22 16:19:31;;;;;;;;;;;;;;;;;;5070470;28;19964;-83
2022/01/22 16:21:57;;;;;;;;;;;;;;;;;;5054358;28;20372;-82
2022/01/22 16:24:23;;;;;;;;;;;;;;;;;;5067530;28;20390;-82
2022/01/22 16:26:49;;;;;;;;;;;;;;;;;;5073229;28;20018;-82
2022/01/22 16:29:16;;;;;;;;;;;;;;;;;;5073546;28;19920;-80
2022/01/22 16:31:44;;;;;;;;;;;;;;;;;;5066454;28;20728;-83
2022/01/22 16:34:10;;;;;;;;;;;;;;;;;;5075129;28;19928;-81
2022/01/22 16:36:39;;;;;;;;;;;;;;;;;;5068074;28;19974;-82
2022/01/22 16:39:05;;;;;;;;;;;;;;;;;;5073272;28;20346;-82
2022/01/22 16:41:33;;;;;;;;;;;;;;;;;;5065574;28;20019;-81
2022/01/22 16:44:10;;;;;;;;;;;;;;;;;;5070835;28;19996;-82
2022/01/22 16:54:40;;;;;;;;;;;;;;;;;;5068346;28;19959;-81
2022/01/22 16:57:12;;;;;;;;;;;;;;;;;;5065208;28;19924;-81
2022/01/22 16:59:40;;;;;;;;;;;;;;;;;;5052306;28;19920;-81
2022/01/22 17:02:06;;;;;;;;;;;;;;;;;;5074006;28;20286;-81
2022/01/22 17:04:41;;;;;;;;;;;;;;;;;;5067078;28;19932;-82
2022/01/22 17:07:18;;;;;;;;;;;;;;;;;;5072669;28;19961;-81
2022/01/22 17:14:55;;;;;;;;;;;;;;;;;;5070225;28;20387;-81
2022/01/22 17:17:23;;;;;;;;;;;;;;;;;;5064513;28;19920;-82
2022/01/22 17:19:54;;;;;;;;;;;;;;;;;;5073746;27;20346;-83
2022/01/22 17:22:20;;;;;;;;;;;;;;;;;;5069492;28;19920;-82
2022/01/22 17:24:46;;;;;;;;;;;;;;;;;;5067775;28;20006;-82
2022/01/22 17:27:13;;;;;;;;;;;;;;;;;;5050152;28;20402;-83
2022/01/22 17:29:41;;;;;;;;;;;;;;;;;;5065061;28;19924;-84
2022/01/22 17:32:07;;;;;;;;;;;;;;;;;;5068156;28;19924;-83
2022/01/22 17:34:33;;;;;;;;;;;;;;;;;;5066120;28;19926;-85
2022/01/22 17:36:59;;;;;;;;;;;;;;;;;;5067197;28;20129;-83
2022/01/22 17:39:28;;;;;;;;;;;;;;;;;;5065696;28;19920;-83
2022/01/22 17:41:54;;;;;;;;;;;;;;;;;;5067567;28;20384;-82
2022/01/22 17:44:21;;;;;;;;;;;;;;;;;;5073404;28;20018;-82
2022/01/22 17:46:48;;;;;;;;;;;;;;;;;;5064720;28;19931;-83
2022/01/22 17:49:14;;;;;;;;;;;;;;;;;;5065614;28;20003;-83
2022/01/22 17:51:40;;;;;;;;;;;;;;;;;;5038411;28;20004;-82
2022/01/22 17:54:06;;;;;;;;;;;;;;;;;;5068960;28;19960;-82
2022/01/22 17:56:32;;;;;;;;;;;;;;;;;;5060350;28;20021;-82
2022/01/22 17:58:58;;;;;;;;;;;;;;;;;;5046416;28;19928;-83
2022/01/22 18:01:25;;;;;;;;;;;;;;;;;;5080286;28;19928;-82
2022/01/22 18:03:55;;;;;;;;;;;;;;;;;;5048570;28;20928;-83
2022/01/22 18:06:20;;;;;;;;;;;;;;;;;;5065605;28;19920;-84
2022/01/22 18:08:46;;;;;;;;;;;;;;;;;;5061867;28;19934;-83
2022/01/22 18:11:14;;;;;;;;;;;;;;;;;;5045662;28;19955;-82
2022/01/22 18:13:40;;;;;;;;;;;;;;;;;;5061050;28;19916;-81
2022/01/22 18:16:06;;;;;;;;;;;;;;;;;;5062886;28;19934;-82
2022/01/22 18:18:33;;;;;;;;;;;;;;;;;;5060580;28;19924;-83
2022/01/22 18:20:59;;;;;;;;;;;;;;;;;;5051341;28;19931;-82
2022/01/22 18:23:25;;;;;;;;;;;;;;;;;;5058936;28;19924;-81
2022/01/22 18:25:51;;;;;;;;;;;;;;;;;;5083357;28;20047;-82
2022/01/22 18:28:17;;;;;;;;;;;;;;;;;;5079749;28;19935;-82
2022/01/22 18:30:43;;;;;;;;;;;;;;;;;;5047797;28;21257;-82
2022/01/22 18:33:09;;;;;;;;;;;;;;;;;;5074876;28;19924;-82
2022/01/22 18:35:35;;;;;;;;;;;;;;;;;;5068579;28;19928;-82
2022/01/22 18:38:02;;;;;;;;;;;;;;;;;;5058311;28;19984;-82
2022/01/22 18:40:35;;;;;;;;;;;;;;;;;;5085085;27;19931;-81
2022/01/22 18:43:00;;;;;;;;;;;;;;;;;;5074421;28;19966;-82
2022/01/22 18:45:30;;;;;;;;;;;;;;;;;;5072534;28;20358;-81
2022/01/22 18:47:56;;;;;;;;;;;;;;;;;;5090784;28;19940;-82
2022/01/22 18:50:23;;;;;;;;;;;;;;;;;;5055965;28;19928;-82
2022/01/22 18:52:52;;;;;;;;;;;;;;;;;;5079534;28;19927;-81
2022/01/22 18:55:22;;;;;;;;;;;;;;;;;;5092699;28;19941;-82
2022/01/22 18:57:49;;;;;;;;;;;;;;;;;;5072895;28;19989;-82
2022/01/22 19:00:16;;;;;;;;;;;;;;;;;;5076826;28;20987;-81
2022/01/22 19:02:42;;;;;;;;;;;;;;;;;;5053637;28;19924;-81
2022/01/22 19:05:09;;;;;;;;;;;;;;;;;;5054040;28;20005;-81
2022/01/22 19:07:39;;;;;;;;;;;;;;;;;;5052267;28;20305;-80